sensor_id;sensor_type;location;lat;lon;timestamp;pressure;altitude;pressure_sealevel;temperature;humidity
36190;BME280;22232;50.914;13.858;2023-01-24T00:01:04;99773.72;;;-0.81;100.00
36190;BME280;22232;50.914;13.858;2023-01-24T00:03:32;99762.88;;;-0.88;100.00
36190;BME280;22232;50.914;13.858;2023-01-24T00:06:00;99772.38;;;-0.87;100.00
36190;BME280;22232;50.914;13.858;2023-01-24T00:08:27;99777.50;;;-0.85;100.00
36190;BME280;22232;50.914;13.858;2023-01-24T00:11:04;99771.66;;;-0.89;100.00
36190;BME280;22232;50.914;13.858;2023-01-24T00:13:32;99769.97;;;-0.90;100.00
36190;BME280;22232;50.914;13.858;2023-01-24T00:18:39;99766.31;;;-0.87;100.00
36190;BME280;22232;50.914;13.858;2023-01-24T00:21:21;99770.28;;;-0.95;100.00
36190;BME280;22232;50.914;13.858;2023-01-24T00:23:51;99770.94;;;-0.91;100.00
36190;BME280;22232;50.914;13.858;2023-01-24T00:26:22;99773.44;;;-0.89;100.00
36190;BME280;22232;50.914;13.858;2023-01-24T00:28:50;99778.59;;;-0.88;100.00
36190;BME280;22232;50.914;13.858;2023-01-24T00:31:18;99773.56;;;-0.91;100.00
36190;BME280;22232;50.914;13.858;2023-01-24T00:33:46;99773.34;;;-0.88;100.00
36190;BME280;22232;50.914;13.858;2023-01-24T00:36:14;99771.66;;;-0.89;100.00
36190;BME280;22232;50.914;13.858;2023-01-24T00:38:42;99781.63;;;-0.94;100.00
36190;BME280;22232;50.914;13.858;2023-01-24T00:41:10;99777.09;;;-0.92;100.00
36190;BME280;22232;50.914;13.858;2023-01-24T00:43:37;99781.50;;;-0.93;100.00
36190;BME280;22232;50.914;13.858;2023-01-24T00:46:06;99770.72;;;-0.88;100.00
36190;BME280;22232;50.914;13.858;2023-01-24T00:48:34;99783.19;;;-0.92;100.00
36190;BME280;22232;50.914;13.858;2023-01-24T00:51:02;99780.34;;;-0.88;100.00
36190;BME280;22232;50.914;13.858;2023-01-24T00:53:30;99785.34;;;-0.85;100.00
36190;BME280;22232;50.914;13.858;2023-01-24T00:55:58;99785.69;;;-0.90;100.00
36190;BME280;22232;50.914;13.858;2023-01-24T00:58:26;99780.97;;;-0.85;100.00
36190;BME280;22232;50.914;13.858;2023-01-24T01:00:55;99784.03;;;-0.91;100.00
36190;BME280;22232;50.914;13.858;2023-01-24T01:03:23;99787.09;;;-0.97;100.00
36190;BME280;22232;50.914;13.858;2023-01-24T01:06:06;99787.78;;;-0.95;100.00
36190;BME280;22232;50.914;13.858;2023-01-24T01:08:35;99786.75;;;-0.93;100.00
36190;BME280;22232;50.914;13.858;2023-01-24T01:11:03;99798.59;;;-0.87;100.00
36190;BME280;22232;50.914;13.858;2023-01-24T01:13:31;99792.00;;;-0.93;100.00
36190;BME280;22232;50.914;13.858;2023-01-24T01:16:10;99795.44;;;-0.92;100.00
36190;BME280;22232;50.914;13.858;2023-01-24T01:18:38;99791.25;;;-0.95;100.00
36190;BME280;22232;50.914;13.858;2023-01-24T01:21:06;99796.28;;;-0.92;100.00
36190;BME280;22232;50.914;13.858;2023-01-24T01:23:34;99802.03;;;-0.86;100.00
36190;BME280;22232;50.914;13.858;2023-01-24T01:26:04;99795.97;;;-0.87;100.00
36190;BME280;22232;50.914;13.858;2023-01-24T01:28:33;99788.63;;;-0.95;100.00
36190;BME280;22232;50.914;13.858;2023-01-24T01:31:01;99793.25;;;-0.98;100.00
36190;BME280;22232;50.914;13.858;2023-01-24T01:33:30;99790.41;;;-0.95;100.00
36190;BME280;22232;50.914;13.858;2023-01-24T01:35:58;99792.81;;;-0.92;100.00
36190;BME280;22232;50.914;13.858;2023-01-24T01:38:26;99795.22;;;-0.89;100.00
36190;BME280;22232;50.914;13.858;2023-01-24T01:40:56;99789.88;;;-0.87;100.00
36190;BME280;22232;50.914;13.858;2023-01-24T01:43:27;99787.38;;;-0.89;100.00
36190;BME280;22232;50.914;13.858;2023-01-24T01:46:21;99783.91;;;-0.89;100.00
36190;BME280;22232;50.914;13.858;2023-01-24T01:48:55;99782.25;;;-0.90;100.00
36190;BME280;22232;50.914;13.858;2023-01-24T01:51:58;99780.84;;;-0.83;100.00
36190;BME280;22232;50.914;13.858;2023-01-24T01:54:30;99777.50;;;-0.85;100.00
36190;BME280;22232;50.914;13.858;2023-01-24T01:57:02;99776.06;;;-0.89;100.00
36190;BME280;22232;50.914;13.858;2023-01-24T01:59:46;99784.44;;;-0.84;100.00
36190;BME280;22232;50.914;13.858;2023-01-24T02:02:15;99777.94;;;-0.92;100.00
36190;BME280;22232;50.914;13.858;2023-01-24T02:04:48;99780.47;;;-0.90;100.00
36190;BME280;22232;50.914;13.858;2023-01-24T02:07:23;99780.56;;;-0.92;100.00
36190;BME280;22232;50.914;13.858;2023-01-24T02:09:53;99780.47;;;-0.90;100.00
36190;BME280;22232;50.914;13.858;2023-01-24T02:12:37;99784.66;;;-0.87;100.00
36190;BME280;22232;50.914;13.858;2023-01-24T02:15:09;99786.94;;;-0.83;100.00
36190;BME280;22232;50.914;13.858;2023-01-24T02:17:57;99778.22;;;-0.83;100.00
36190;BME280;22232;50.914;13.858;2023-01-24T02:20:48;99773.94;;;-0.84;100.00
36190;BME280;22232;50.914;13.858;2023-01-24T02:26:13;99762.44;;;-0.82;100.00
36190;BME280;22232;50.914;13.858;2023-01-24T02:29:04;99760.50;;;-0.80;100.00
36190;BME280;22232;50.914;13.858;2023-01-24T02:32:02;99758.47;;;-0.87;100.00
36190;BME280;22232;50.914;13.858;2023-01-24T02:34:32;99753.22;;;-0.87;100.00
36190;BME280;22232;50.914;13.858;2023-01-24T02:37:04;99755.94;;;-0.89;100.00
36190;BME280;22232;50.914;13.858;2023-01-24T02:39:37;99745.13;;;-0.84;100.00
36190;BME280;22232;50.914;13.858;2023-01-24T02:42:11;99760.25;;;-0.88;100.00
36190;BME280;22232;50.914;13.858;2023-01-24T02:45:36;99761.91;;;-0.87;100.00
36190;BME280;22232;50.914;13.858;2023-01-24T02:47:44;99747.97;;;-0.87;100.00
36190;BME280;22232;50.914;13.858;2023-01-24T02:50:13;99752.16;;;-0.85;100.00
36190;BME280;22232;50.914;13.858;2023-01-24T02:52:41;99739.50;;;-0.91;100.00
36190;BME280;22232;50.914;13.858;2023-01-24T02:55:27;99757.63;;;-0.88;100.00
36190;BME280;22232;50.914;13.858;2023-01-24T02:57:56;99742.34;;;-0.94;100.00
36190;BME280;22232;50.914;13.858;2023-01-24T03:00:40;99761.38;;;-0.92;100.00
36190;BME280;22232;50.914;13.858;2023-01-24T03:03:12;99753.88;;;-0.97;100.00
36190;BME280;22232;50.914;13.858;2023-01-24T03:05:40;99751.13;;;-0.95;100.00
36190;BME280;22232;50.914;13.858;2023-01-24T03:08:16;99762.22;;;-0.92;100.00
36190;BME280;22232;50.914;13.858;2023-01-24T03:10:44;99754.94;;;-0.99;100.00
36190;BME280;22232;50.914;13.858;2023-01-24T03:13:16;99755.75;;;-0.99;100.00
36190;BME280;22232;50.914;13.858;2023-01-24T03:16:04;99758.50;;;-1.00;100.00
36190;BME280;22232;50.914;13.858;2023-01-24T03:18:51;99761.94;;;-1.00;100.00
36190;BME280;22232;50.914;13.858;2023-01-24T03:21:37;99765.56;;;-0.89;100.00
36190;BME280;22232;50.914;13.858;2023-01-24T03:24:23;99763.53;;;-0.97;100.00
36190;BME280;22232;50.914;13.858;2023-01-24T03:27:11;99765.91;;;-0.94;100.00
36190;BME280;22232;50.914;13.858;2023-01-24T03:29:58;99764.97;;;-0.93;100.00
36190;BME280;22232;50.914;13.858;2023-01-24T03:32:47;99761.38;;;-0.92;100.00
36190;BME280;22232;50.914;13.858;2023-01-24T03:35:34;99776.50;;;-0.96;100.00
36190;BME280;22232;50.914;13.858;2023-01-24T03:38:02;99775.66;;;-0.96;100.00
36190;BME280;22232;50.914;13.858;2023-01-24T03:40:51;99765.28;;;-0.98;100.00
36190;BME280;22232;50.914;13.858;2023-01-24T03:43:20;99769.69;;;-0.98;100.00
36190;BME280;22232;50.914;13.858;2023-01-24T03:45:51;99768.13;;;-1.01;100.00
36190;BME280;22232;50.914;13.858;2023-01-24T03:48:31;99773.25;;;-0.99;100.00
36190;BME280;22232;50.914;13.858;2023-01-24T03:51:08;99774.22;;;-1.00;100.00
36190;BME280;22232;50.914;13.858;2023-01-24T03:53:54;99771.81;;;-1.03;100.00
36190;BME280;22232;50.914;13.858;2023-01-24T03:56:26;99777.06;;;-1.03;100.00
36190;BME280;22232;50.914;13.858;2023-01-24T03:58:58;99774.53;;;-1.05;100.00
36190;BME280;22232;50.914;13.858;2023-01-24T04:01:30;99768.25;;;-1.02;100.00
36190;BME280;22232;50.914;13.858;2023-01-24T04:04:08;99772.44;;;-1.00;100.00
36190;BME280;22232;50.914;13.858;2023-01-24T04:06:35;99770.50;;;-0.98;100.00
36190;BME280;22232;50.914;13.858;2023-01-24T04:09:06;99777.94;;;-0.92;100.00
36190;BME280;22232;50.914;13.858;2023-01-24T04:11:36;99774.81;;;-0.97;100.00
36190;BME280;22232;50.914;13.858;2023-01-24T04:14:10;99773.34;;;-1.01;100.00
36190;BME280;22232;50.914;13.858;2023-01-24T04:16:49;99774.00;;;-0.97;100.00
36190;BME280;22232;50.914;13.858;2023-01-24T04:19:22;99767.28;;;-1.01;100.00
36190;BME280;22232;50.914;13.858;2023-01-24T04:21:49;99765.00;;;-1.06;100.00
36190;BME280;22232;50.914;13.858;2023-01-24T04:24:17;99770.13;;;-1.04;100.00
36190;BME280;22232;50.914;13.858;2023-01-24T04:26:45;99771.06;;;-1.05;100.00
36190;BME280;22232;50.914;13.858;2023-01-24T04:29:18;99768.75;;;-0.97;100.00
36190;BME280;22232;50.914;13.858;2023-01-24T04:31:48;99767.59;;;-0.93;100.00
36190;BME280;22232;50.914;13.858;2023-01-24T04:34:42;99760.16;;;-0.99;100.00
36190;BME280;22232;50.914;13.858;2023-01-24T04:37:18;99769.59;;;-0.97;100.00
36190;BME280;22232;50.914;13.858;2023-01-24T04:39:46;99764.22;;;-0.95;100.00
36190;BME280;22232;50.914;13.858;2023-01-24T04:42:16;99765.91;;;-0.94;100.00
36190;BME280;22232;50.914;13.858;2023-01-24T04:44:44;99767.28;;;-1.01;100.00
36190;BME280;22232;50.914;13.858;2023-01-24T04:47:12;99765.19;;;-0.96;100.00
36190;BME280;22232;50.914;13.858;2023-01-24T04:49:42;99773.66;;;-0.93;100.00
36190;BME280;22232;50.914;13.858;2023-01-24T04:52:15;99774.81;;;-0.97;100.00
36190;BME280;22232;50.914;13.858;2023-01-24T04:55:01;99772.09;;;-0.95;100.00
36190;BME280;22232;50.914;13.858;2023-01-24T04:57:28;99774.91;;;-0.98;100.00
36190;BME280;22232;50.914;13.858;2023-01-24T04:59:58;99777.00;;;-0.90;100.00
36190;BME280;22232;50.914;13.858;2023-01-24T05:02:27;99780.78;;;-0.95;100.00
36190;BME280;22232;50.914;13.858;2023-01-24T05:04:55;99780.91;;;-0.96;100.00
36190;BME280;22232;50.914;13.858;2023-01-24T05:07:23;99791.47;;;-0.98;100.00
36190;BME280;22232;50.914;13.858;2023-01-24T05:09:58;99785.63;;;-1.01;100.00
36190;BME280;22232;50.914;13.858;2023-01-24T05:12:27;99791.59;;;-0.99;100.00
36190;BME280;22232;50.914;13.858;2023-01-24T05:14:58;99790.63;;;-0.98;100.00
36190;BME280;22232;50.914;13.858;2023-01-24T05:17:25;99790.16;;;-1.03;100.00
36190;BME280;22232;50.914;13.858;2023-01-24T05:19:55;99790.44;;;-1.08;100.00
36190;BME280;22232;50.914;13.858;2023-01-24T05:22:23;99789.41;;;-1.05;100.00
36190;BME280;22232;50.914;13.858;2023-01-24T05:24:50;99799.22;;;-0.96;100.00
36190;BME280;22232;50.914;13.858;2023-01-24T05:27:18;99798.00;;;-1.03;100.00
36190;BME280;22232;50.914;13.858;2023-01-24T05:29:55;99807.63;;;-1.04;100.00
36190;BME280;22232;50.914;13.858;2023-01-24T05:32:22;99801.44;;;-1.03;100.00
36190;BME280;22232;50.914;13.858;2023-01-24T05:34:50;99798.00;;;-1.03;100.00
36190;BME280;22232;50.914;13.858;2023-01-24T05:37:17;99808.56;;;-1.05;100.00
36190;BME280;22232;50.914;13.858;2023-01-24T05:39:45;99811.19;;;-1.05;100.00
36190;BME280;22232;50.914;13.858;2023-01-24T05:42:13;99806.06;;;-1.06;100.00
36190;BME280;22232;50.914;13.858;2023-01-24T05:44:43;99804.16;;;-1.04;100.00
36190;BME280;22232;50.914;13.858;2023-01-24T05:47:12;99805.00;;;-1.04;100.00
36190;BME280;22232;50.914;13.858;2023-01-24T05:49:43;99800.41;;;-1.00;100.00
36190;BME280;22232;50.914;13.858;2023-01-24T05:52:11;99804.78;;;-1.01;100.00
36190;BME280;22232;50.914;13.858;2023-01-24T05:54:47;99809.94;;;-0.99;100.00
36190;BME280;22232;50.914;13.858;2023-01-24T05:57:29;99800.41;;;-1.00;100.00
36190;BME280;22232;50.914;13.858;2023-01-24T06:00:16;99796.91;;;-1.01;100.00
36190;BME280;22232;50.914;13.858;2023-01-24T06:03:03;99801.22;;;-1.00;100.00
36190;BME280;22232;50.914;13.858;2023-01-24T06:05:31;99813.59;;;-1.02;100.00
36190;BME280;22232;50.914;13.858;2023-01-24T06:07:59;99808.97;;;-0.98;100.00
36190;BME280;22232;50.914;13.858;2023-01-24T06:10:27;99815.25;;;-1.01;100.00
36190;BME280;22232;50.914;13.858;2023-01-24T06:13:04;99818.63;;;-0.99;100.00
36190;BME280;22232;50.914;13.858;2023-01-24T06:15:31;99824.06;;;-1.02;100.00
36190;BME280;22232;50.914;13.858;2023-01-24T06:18:00;99823.44;;;-1.05;100.00
36190;BME280;22232;50.914;13.858;2023-01-24T06:20:29;99833.50;;;-0.99;100.00
36190;BME280;22232;50.914;13.858;2023-01-24T06:23:02;99832.13;;;-1.05;100.00
36190;BME280;22232;50.914;13.858;2023-01-24T06:25:33;99828.56;;;-1.04;100.00
36190;BME280;22232;50.914;13.858;2023-01-24T06:28:01;99829.31;;;-1.02;100.00
36190;BME280;22232;50.914;13.858;2023-01-24T06:30:29;99830.13;;;-1.01;100.00
36190;BME280;22232;50.914;13.858;2023-01-24T06:33:15;99831.09;;;-1.02;100.00
36190;BME280;22232;50.914;13.858;2023-01-24T06:36:10;99838.22;;;-1.04;100.00
36190;BME280;22232;50.914;13.858;2023-01-24T06:38:40;99834.66;;;-1.03;100.00
36190;BME280;22232;50.914;13.858;2023-01-24T06:41:14;99835.09;;;-1.09;100.00
36190;BME280;22232;50.914;13.858;2023-01-24T06:43:43;99843.03;;;-1.11;100.00
36190;BME280;22232;50.914;13.858;2023-01-24T06:46:12;99842.09;;;-1.10;100.00
36190;BME280;22232;50.914;13.858;2023-01-24T06:48:44;99844.41;;;-1.05;100.00
36190;BME280;22232;50.914;13.858;2023-01-24T06:51:12;99844.63;;;-1.08;100.00
36190;BME280;22232;50.914;13.858;2023-01-24T06:53:41;99840.34;;;-1.09;100.00
36190;BME280;22232;50.914;13.858;2023-01-24T06:56:09;99835.31;;;-1.12;100.00
36190;BME280;22232;50.914;13.858;2023-01-24T06:58:36;99841.25;;;-1.10;100.00
36190;BME280;22232;50.914;13.858;2023-01-24T07:01:04;99844.50;;;-1.07;100.00
36190;BME280;22232;50.914;13.858;2023-01-24T07:03:32;99853.91;;;-1.04;100.00
36190;BME280;22232;50.914;13.858;2023-01-24T07:05:59;99849.53;;;-1.04;100.00
36190;BME280;22232;50.914;13.858;2023-01-24T07:08:27;99847.97;;;-1.06;100.00
36190;BME280;22232;50.914;13.858;2023-01-24T07:10:57;99845.97;;;-1.03;100.00
36190;BME280;22232;50.914;13.858;2023-01-24T07:13:25;99846.06;;;-1.04;100.00
36190;BME280;22232;50.914;13.858;2023-01-24T07:15:53;99844.19;;;-1.02;100.00
36190;BME280;22232;50.914;13.858;2023-01-24T07:18:21;99847.84;;;-1.05;100.00
36190;BME280;22232;50.914;13.858;2023-01-24T07:20:48;99843.66;;;-1.07;100.00
36190;BME280;22232;50.914;13.858;2023-01-24T07:23:25;99843.34;;;-1.03;100.00
36190;BME280;22232;50.914;13.858;2023-01-24T07:25:55;99846.47;;;-0.98;100.00
36190;BME280;22232;50.914;13.858;2023-01-24T07:28:23;99848.25;;;-0.98;100.00
36190;BME280;22232;50.914;13.858;2023-01-24T07:30:54;99847.75;;;-1.03;100.00
36190;BME280;22232;50.914;13.858;2023-01-24T07:33:21;99853.06;;;-0.92;100.00
36190;BME280;22232;50.914;13.858;2023-01-24T07:35:49;99853.69;;;-0.88;100.00
36190;BME280;22232;50.914;13.858;2023-01-24T07:38:16;99851.94;;;-0.88;100.00
36190;BME280;22232;50.914;13.858;2023-01-24T07:40:44;99860.00;;;-0.91;100.00
36190;BME280;22232;50.914;13.858;2023-01-24T07:43:12;99856.22;;;-0.87;100.00
36190;BME280;22232;50.914;13.858;2023-01-24T07:45:40;99857.03;;;-0.86;100.00
36190;BME280;22232;50.914;13.858;2023-01-24T07:48:07;99853.59;;;-0.87;100.00
36190;BME280;22232;50.914;13.858;2023-01-24T07:50:35;99855.25;;;-0.86;100.00
36190;BME280;22232;50.914;13.858;2023-01-24T07:53:03;99857.22;;;-0.77;100.00
36190;BME280;22232;50.914;13.858;2023-01-24T07:55:30;99849.69;;;-0.68;100.00
36190;BME280;22232;50.914;13.858;2023-01-24T07:58:02;99843.59;;;-0.69;100.00
36190;BME280;22232;50.914;13.858;2023-01-24T08:00:30;99851.06;;;-0.76;100.00
36190;BME280;22232;50.914;13.858;2023-01-24T08:02:58;99854.81;;;-0.80;100.00
36190;BME280;22232;50.914;13.858;2023-01-24T08:05:25;99858.63;;;-0.84;100.00
36190;BME280;22232;50.914;13.858;2023-01-24T08:07:54;99859.22;;;-0.80;100.00
36190;BME280;22232;50.914;13.858;2023-01-24T08:10:22;99858.19;;;-0.78;100.00
36190;BME280;22232;50.914;13.858;2023-01-24T08:12:51;99867.84;;;-0.78;100.00
36190;BME280;22232;50.914;13.858;2023-01-24T08:15:18;99872.34;;;-0.80;100.00
36190;BME280;22232;50.914;13.858;2023-01-24T08:17:46;99873.06;;;-0.78;100.00
36190;BME280;22232;50.914;13.858;2023-01-24T08:20:14;99880.19;;;-0.80;100.00
36190;BME280;22232;50.914;13.858;2023-01-24T08:22:42;99879.38;;;-0.81;100.00
36190;BME280;22232;50.914;13.858;2023-01-24T08:25:27;99879.38;;;-0.81;100.00
36190;BME280;22232;50.914;13.858;2023-01-24T08:27:55;99878.53;;;-0.81;100.00
36190;BME280;22232;50.914;13.858;2023-01-24T08:30:23;99875.78;;;-0.80;100.00
36190;BME280;22232;50.914;13.858;2023-01-24T08:33:02;99882.94;;;-0.82;100.00
36190;BME280;22232;50.914;13.858;2023-01-24T08:35:31;99885.97;;;-0.75;100.00
36190;BME280;22232;50.914;13.858;2023-01-24T08:37:59;99890.59;;;-0.79;100.00
36190;BME280;22232;50.914;13.858;2023-01-24T08:40:26;99893.28;;;-0.80;100.00
36190;BME280;22232;50.914;13.858;2023-01-24T08:42:59;99892.47;;;-0.81;100.00
36190;BME280;22232;50.914;13.858;2023-01-24T08:45:29;99894.44;;;-0.72;100.00
36190;BME280;22232;50.914;13.858;2023-01-24T08:47:56;99899.16;;;-0.77;100.00
36190;BME280;22232;50.914;13.858;2023-01-24T08:50:24;99904.09;;;-0.72;100.00
36190;BME280;22232;50.914;13.858;2023-01-24T08:52:56;99901.56;;;-0.74;100.00
36190;BME280;22232;50.914;13.858;2023-01-24T08:55:24;99907.31;;;-0.68;100.00
36190;BME280;22232;50.914;13.858;2023-01-24T08:57:58;99908.16;;;-0.68;100.00
36190;BME280;22232;50.914;13.858;2023-01-24T09:00:26;99907.19;;;-0.67;100.00
36190;BME280;22232;50.914;13.858;2023-01-24T09:02:53;99906.91;;;-0.62;100.00
36190;BME280;22232;50.914;13.858;2023-01-24T09:05:21;99903.97;;;-0.71;100.00
36190;BME280;22232;50.914;13.858;2023-01-24T09:07:49;99903.53;;;-0.64;100.00
36190;BME280;22232;50.914;13.858;2023-01-24T09:10:17;99914.88;;;-0.64;100.00
36190;BME280;22232;50.914;13.858;2023-01-24T09:12:44;99917.91;;;-0.57;100.00
36190;BME280;22232;50.914;13.858;2023-01-24T09:15:12;99912.88;;;-0.60;100.00
36190;BME280;22232;50.914;13.858;2023-01-24T09:17:39;99912.25;;;-0.64;100.00
36190;BME280;22232;50.914;13.858;2023-01-24T09:20:08;99906.69;;;-0.59;100.00
36190;BME280;22232;50.914;13.858;2023-01-24T09:22:35;99915.50;;;-0.60;100.00
36190;BME280;22232;50.914;13.858;2023-01-24T09:25:03;99916.72;;;-0.53;100.00
36190;BME280;22232;50.914;13.858;2023-01-24T09:27:31;99906.59;;;-0.58;100.00
36190;BME280;22232;50.914;13.858;2023-01-24T09:29:58;99911.72;;;-0.69;100.00
36190;BME280;22232;50.914;13.858;2023-01-24T09:32:26;99912.78;;;-0.72;100.00
36190;BME280;22232;50.914;13.858;2023-01-24T09:34:53;99910.47;;;-0.63;100.00
36190;BME280;22232;50.914;13.858;2023-01-24T09:37:22;99911.81;;;-0.58;100.00
36190;BME280;22232;50.914;13.858;2023-01-24T09:39:49;99913.38;;;-0.55;100.00
36190;BME280;22232;50.914;13.858;2023-01-24T09:45:18;99908.78;;;-0.64;100.00
36190;BME280;22232;50.914;13.858;2023-01-24T09:48:13;99905.41;;;-0.54;100.00
36190;BME280;22232;50.914;13.858;2023-01-24T09:50:49;99907.81;;;-0.51;100.00
36190;BME280;22232;50.914;13.858;2023-01-24T09:55:46;99906.59;;;-0.58;100.00
36190;BME280;22232;50.914;13.858;2023-01-24T09:58:35;99903.09;;;-0.58;100.00
36190;BME280;22232;50.914;13.858;2023-01-24T10:01:12;99900.03;;;-0.52;100.00
36190;BME280;22232;50.914;13.858;2023-01-24T10:03:42;99893.34;;;-0.56;100.00
36190;BME280;22232;50.914;13.858;2023-01-24T10:09:09;99891.66;;;-0.44;100.00
36190;BME280;22232;50.914;13.858;2023-01-24T10:11:47;99892.47;;;-0.44;100.00
36190;BME280;22232;50.914;13.858;2023-01-24T10:14:39;99888.28;;;-0.47;100.00
36190;BME280;22232;50.914;13.858;2023-01-24T10:22:39;99885.50;;;-0.56;100.00
36190;BME280;22232;50.914;13.858;2023-01-24T10:25:22;99882.22;;;-0.47;100.00
36190;BME280;22232;50.914;13.858;2023-01-24T10:27:55;99880.34;;;-0.45;100.00
36190;BME280;22232;50.914;13.858;2023-01-24T10:30:49;99880.34;;;-0.45;100.00
36190;BME280;22232;50.914;13.858;2023-01-24T10:33:21;99882.22;;;-0.47;100.00
36190;BME280;22232;50.914;13.858;2023-01-24T10:38:28;99888.69;;;-0.40;100.00
36190;BME280;22232;50.914;13.858;2023-01-24T10:41:11;99874.34;;;-0.47;100.00
36190;BME280;22232;50.914;13.858;2023-01-24T10:43:43;99875.53;;;-0.51;100.00
36190;BME280;22232;50.914;13.858;2023-01-24T10:48:50;99874.75;;;-0.40;100.00
36190;BME280;22232;50.914;13.858;2023-01-24T10:51:22;99872.25;;;-0.42;100.00
36190;BME280;22232;50.914;13.858;2023-01-24T10:54:17;99870.47;;;-0.41;100.00
36190;BME280;22232;50.914;13.858;2023-01-24T10:56:46;99871.72;;;-0.47;100.00
36190;BME280;22232;50.914;13.858;2023-01-24T10:59:14;99875.09;;;-0.45;100.00
36190;BME280;22232;50.914;13.858;2023-01-24T11:01:45;99866.06;;;-0.41;100.00
36190;BME280;22232;50.914;13.858;2023-01-24T11:06:48;99868.34;;;-0.36;100.00
36190;BME280;22232;50.914;13.858;2023-01-24T11:09:20;99875.25;;;-0.35;100.00
36190;BME280;22232;50.914;13.858;2023-01-24T11:11:53;99868.34;;;-0.36;100.00
36190;BME280;22232;50.914;13.858;2023-01-24T11:14:24;99869.91;;;-0.34;100.00
36190;BME280;22232;50.914;13.858;2023-01-24T11:16:58;99865.00;;;-0.38;100.00
36190;BME280;22232;50.914;13.858;2023-01-24T11:19:33;99865.63;;;-0.35;100.00
36190;BME280;22232;50.914;13.858;2023-01-24T11:22:19;99861.41;;;-0.37;100.00
36190;BME280;22232;50.914;13.858;2023-01-24T11:24:47;99862.19;;;-0.48;100.00
36190;BME280;22232;50.914;13.858;2023-01-24T11:27:17;99850.72;;;-0.34;100.00
36190;BME280;22232;50.914;13.858;2023-01-24T11:30:04;99854.06;;;-0.32;100.00
36190;BME280;22232;50.914;13.858;2023-01-24T11:35:36;99858.47;;;-0.33;100.00
36190;BME280;22232;50.914;13.858;2023-01-24T11:40:47;99852.63;;;-0.36;100.00
36190;BME280;22232;50.914;13.858;2023-01-24T11:44:12;99857.44;;;-0.30;100.00
36190;BME280;22232;50.914;13.858;2023-01-24T12:11:22;99841.91;;;-0.33;100.00
36190;BME280;22232;50.914;13.858;2023-01-24T12:22:17;99830.25;;;-0.29;100.00
36190;BME280;22232;50.914;13.858;2023-01-24T12:25:03;99819.75;;;-0.29;100.00
36190;BME280;22232;50.914;13.858;2023-01-24T12:27:35;99826.22;;;-0.46;100.00
36190;BME280;22232;50.914;13.858;2023-01-24T12:30:32;99824.31;;;-0.44;100.00
36190;BME280;22232;50.914;13.858;2023-01-24T12:33:13;99828.81;;;-0.33;100.00
36190;BME280;22232;50.914;13.858;2023-01-24T12:35:45;99835.13;;;-0.25;100.00
36190;BME280;22232;50.914;13.858;2023-01-24T12:41:09;99833.47;;;-0.50;100.00
36190;BME280;22232;50.914;13.858;2023-01-24T12:54:14;99839.22;;;-0.44;100.00
36190;BME280;22232;50.914;13.858;2023-01-24T12:56:55;99843.41;;;-0.42;100.00
36190;BME280;22232;50.914;13.858;2023-01-24T12:59:28;99833.19;;;-0.34;100.00
36190;BME280;22232;50.914;13.858;2023-01-24T13:13:35;99833.75;;;-0.41;100.00
36190;BME280;22232;50.914;13.858;2023-01-24T13:19:04;99834.28;;;-0.36;100.00
36190;BME280;22232;50.914;13.858;2023-01-24T13:21:53;99831.88;;;-0.39;100.00
36190;BME280;22232;50.914;13.858;2023-01-24T13:25:05;99838.41;;;-0.45;100.00
36190;BME280;22232;50.914;13.858;2023-01-24T13:27:45;99834.19;;;-0.48;100.00
36190;BME280;22232;50.914;13.858;2023-01-24T13:30:35;99825.50;;;-0.48;100.00
36190;BME280;22232;50.914;13.858;2023-01-24T13:33:12;99827.47;;;-0.39;100.00
36190;BME280;22232;50.914;13.858;2023-01-24T13:35:51;99832.09;;;-0.42;100.00
36190;BME280;22232;50.914;13.858;2023-01-24T13:38:27;99832.09;;;-0.42;100.00
36190;BME280;22232;50.914;13.858;2023-01-24T13:46:03;99831.53;;;-0.35;100.00
36190;BME280;22232;50.914;13.858;2023-01-24T13:54:04;99823.38;;;-0.43;100.00
36190;BME280;22232;50.914;13.858;2023-01-24T13:59:40;99833.16;;;-0.45;100.00
36190;BME280;22232;50.914;13.858;2023-01-24T14:02:28;99829.03;;;-0.36;100.00
36190;BME280;22232;50.914;13.858;2023-01-24T14:04:56;99830.25;;;-0.29;100.00
36190;BME280;22232;50.914;13.858;2023-01-24T14:09:59;99836.59;;;-0.44;100.00
36190;BME280;22232;50.914;13.858;2023-01-24T14:12:29;99837.13;;;-0.39;100.00
36190;BME280;22232;50.914;13.858;2023-01-24T14:15:23;99835.34;;;-0.39;100.00
36190;BME280;22232;50.914;13.858;2023-01-24T14:17:52;99838.25;;;-0.43;100.00
36190;BME280;22232;50.914;13.858;2023-01-24T14:20:35;99834.81;;;-0.44;100.00
36190;BME280;22232;50.914;13.858;2023-01-24T14:23:21;99838.88;;;-0.40;100.00
36190;BME280;22232;50.914;13.858;2023-01-24T14:25:55;99835.09;;;-0.36;100.00
36190;BME280;22232;50.914;13.858;2023-01-24T14:28:36;99839.63;;;-0.38;100.00
36190;BME280;22232;50.914;13.858;2023-01-24T14:31:19;99840.44;;;-0.37;100.00
36190;BME280;22232;50.914;13.858;2023-01-24T14:34:20;99843.91;;;-0.37;100.00
36190;BME280;22232;50.914;13.858;2023-01-24T14:36:47;99846.66;;;-0.38;100.00
36190;BME280;22232;50.914;13.858;2023-01-24T14:39:22;99840.06;;;-0.44;100.00
36190;BME280;22232;50.914;13.858;2023-01-24T14:41:53;99835.03;;;-0.47;100.00
36190;BME280;22232;50.914;13.858;2023-01-24T14:44:26;99839.63;;;-0.38;100.00
36190;BME280;22232;50.914;13.858;2023-01-24T14:46:57;99842.59;;;-0.42;100.00
36190;BME280;22232;50.914;13.858;2023-01-24T14:49:36;99852.72;;;-0.38;100.00
36190;BME280;22232;50.914;13.858;2023-01-24T14:52:16;99853.78;;;-0.40;100.00
36190;BME280;22232;50.914;13.858;2023-01-24T14:54:53;99851.38;;;-0.43;100.00
36190;BME280;22232;50.914;13.858;2023-01-24T14:57:24;99846.97;;;-0.43;100.00
36190;BME280;22232;50.914;13.858;2023-01-24T15:02:49;99851.16;;;-0.40;100.00
36190;BME280;22232;50.914;13.858;2023-01-24T15:05:23;99856.53;;;-0.42;100.00